createdAt,value
2019-03-18T00:00:19.259Z,4.70
2019-03-18T00:02:48.542Z,3.85
2019-03-18T00:05:17.952Z,4.95
2019-03-18T00:07:47.491Z,4.20
2019-03-18T00:10:17.092Z,7.25
2019-03-18T00:12:46.427Z,5.40
2019-03-18T00:15:15.839Z,5.83
2019-03-18T00:17:45.130Z,5.47
2019-03-18T00:20:14.520Z,5.60
2019-03-18T00:22:43.804Z,5.67
2019-03-18T00:25:15.202Z,6.25
2019-03-18T00:27:44.526Z,5.35
2019-03-18T00:30:21.000Z,5.92
2019-03-18T00:32:50.313Z,6.30
2019-03-18T00:35:19.627Z,7.45
2019-03-18T00:37:48.874Z,8.90
2019-03-18T00:40:20.580Z,5.65
2019-03-18T00:42:49.868Z,6.28
2019-03-18T00:45:19.148Z,7.60
2019-03-18T00:47:48.486Z,6.40
2019-03-18T00:50:18.513Z,5.42
2019-03-18T00:52:47.809Z,5.42
2019-03-18T00:55:17.132Z,6.87
2019-03-18T00:57:46.418Z,6.17
2019-03-18T01:00:17.951Z,4.92
2019-03-18T01:02:50.665Z,6.22
2019-03-18T01:05:19.958Z,7.40
2019-03-18T01:07:49.257Z,6.92
2019-03-18T01:10:19.119Z,6.15
2019-03-18T01:12:48.408Z,6.28
2019-03-18T01:15:27.428Z,5.40
2019-03-18T01:17:48.923Z,6.90
2019-03-18T01:20:18.272Z,8.95
2019-03-18T01:22:47.555Z,5.15
2019-03-18T01:25:17.127Z,4.72
2019-03-18T01:27:46.788Z,7.65
2019-03-18T01:30:16.155Z,5.53
2019-03-18T01:32:45.477Z,6.03
2019-03-18T01:35:14.767Z,7.42
2019-03-18T01:37:44.050Z,4.65
2019-03-18T01:40:16.047Z,5.25
2019-03-18T01:42:45.330Z,6.60
2019-03-18T01:45:14.629Z,6.75
2019-03-18T01:47:43.944Z,6.33
2019-03-18T01:50:15.045Z,6.42
2019-03-18T01:52:44.328Z,6.00
2019-03-18T01:55:14.138Z,5.90
2019-03-18T01:57:43.497Z,6.22
2019-03-18T02:00:14.988Z,7.35
2019-03-18T02:02:44.316Z,8.03
2019-03-18T02:05:13.608Z,4.78
2019-03-18T02:07:42.888Z,5.97
2019-03-18T02:10:18.526Z,5.25
2019-03-18T02:12:47.818Z,7.85
2019-03-18T02:15:17.105Z,5.87
2019-03-18T02:17:46.426Z,5.60
2019-03-18T02:20:19.601Z,6.20
2019-03-18T02:22:48.435Z,4.12
2019-03-18T02:25:18.003Z,6.37
2019-03-18T02:27:47.285Z,6.17
2019-03-18T02:30:18.866Z,6.67
2019-03-18T02:32:48.444Z,4.95
2019-03-18T02:35:17.744Z,8.55
2019-03-18T02:37:47.021Z,4.45
2019-03-18T02:40:16.345Z,5.90
2019-03-18T02:42:45.632Z,4.40
2019-03-18T02:45:15.005Z,3.80
2019-03-18T02:47:44.323Z,3.58
2019-03-18T02:50:13.606Z,4.05
2019-03-18T02:52:43.171Z,7.12
2019-03-18T02:55:12.524Z,4.92
2019-03-18T02:57:41.809Z,5.25
2019-03-18T03:00:14.824Z,7.80
2019-03-18T03:02:44.319Z,4.97
2019-03-18T03:05:14.653Z,5.00
2019-03-18T03:07:43.949Z,4.87
2019-03-18T03:10:14.944Z,5.25
2019-03-18T03:12:44.270Z,5.00
2019-03-18T03:15:15.054Z,5.55
2019-03-18T03:17:44.589Z,5.53
2019-03-18T03:20:14.040Z,4.78
2019-03-18T03:22:43.373Z,5.12
2019-03-18T03:25:13.138Z,4.55
2019-03-18T03:27:42.695Z,5.12
2019-03-18T03:30:15.661Z,6.08
2019-03-18T03:32:45.367Z,5.33
2019-03-18T03:35:14.915Z,5.42
2019-03-18T03:37:44.321Z,4.75
2019-03-18T03:40:14.946Z,5.97
2019-03-18T03:42:44.251Z,6.87
2019-03-18T03:45:15.416Z,6.80
2019-03-18T03:47:44.759Z,5.90
2019-03-18T03:50:15.680Z,6.90
2019-03-18T03:52:44.919Z,7.53
2019-03-18T03:55:15.219Z,7.75
2019-03-18T03:57:45.042Z,8.48
2019-03-18T04:00:15.860Z,9.05
2019-03-18T04:02:45.215Z,9.30
2019-03-18T04:05:17.423Z,7.40
2019-03-18T04:07:46.725Z,9.20
2019-03-18T04:10:16.129Z,8.75
2019-03-18T04:12:45.418Z,7.78
2019-03-18T04:15:16.030Z,6.55
2019-03-18T04:17:45.337Z,7.97
2019-03-18T04:20:16.327Z,8.60
2019-03-18T04:22:45.644Z,7.83
2019-03-18T04:25:15.049Z,9.90
2019-03-18T04:27:44.537Z,9.28
2019-03-18T04:30:16.741Z,9.58
2019-03-18T04:32:46.076Z,9.45
2019-03-18T04:35:15.849Z,10.63
2019-03-18T04:37:48.015Z,11.15
2019-03-18T04:40:17.350Z,10.20
2019-03-18T04:42:46.876Z,9.00
2019-03-18T04:45:16.182Z,10.25
2019-03-18T04:47:45.505Z,10.05
2019-03-18T04:50:15.302Z,9.38
2019-03-18T04:52:44.896Z,11.33
2019-03-18T04:55:14.517Z,10.13
2019-03-18T04:57:44.112Z,11.20
2019-03-18T05:00:16.451Z,9.13
2019-03-18T05:02:45.791Z,11.03
2019-03-18T05:05:15.072Z,8.58
2019-03-18T05:07:44.365Z,11.90
2019-03-18T05:10:13.689Z,9.05
2019-03-18T05:12:42.985Z,10.80
2019-03-18T05:15:12.354Z,10.82
2019-03-18T05:17:41.672Z,8.88
2019-03-18T05:20:13.614Z,8.73
2019-03-18T05:22:45.639Z,10.20
2019-03-18T05:25:15.232Z,11.57
2019-03-18T05:27:44.511Z,9.88
2019-03-18T05:30:14.935Z,10.75
2019-03-18T05:32:44.271Z,10.28
2019-03-18T05:35:13.583Z,12.07
2019-03-18T05:37:43.154Z,11.78
2019-03-18T05:40:12.618Z,9.38
2019-03-18T05:42:42.002Z,10.08
2019-03-18T05:45:12.110Z,8.90
2019-03-18T05:47:41.457Z,9.95
2019-03-18T05:50:12.147Z,10.60
2019-03-18T05:52:41.452Z,8.95
2019-03-18T05:55:11.322Z,10.60
2019-03-18T05:57:40.611Z,10.38
2019-03-18T06:00:15.023Z,10.90
2019-03-18T06:02:46.756Z,9.98
2019-03-18T06:05:15.379Z,9.10
2019-03-18T06:07:44.679Z,11.38
2019-03-18T06:10:14.590Z,9.70
2019-03-18T06:12:44.128Z,9.10
2019-03-18T06:15:14.121Z,9.30
2019-03-18T06:17:52.302Z,9.10
2019-03-18T06:20:14.480Z,10.98
2019-03-18T06:22:43.765Z,8.55
2019-03-18T06:25:13.176Z,9.18
2019-03-18T06:27:42.773Z,9.60
2019-03-18T06:30:18.883Z,9.15
2019-03-18T06:32:48.167Z,9.68
2019-03-18T06:35:20.354Z,9.63
2019-03-18T06:37:48.806Z,11.85
2019-03-18T06:40:18.116Z,9.00
2019-03-18T06:42:47.384Z,12.78
2019-03-18T06:45:19.964Z,9.03
2019-03-18T06:47:49.255Z,11.03
2019-03-18T06:50:18.540Z,7.58
2019-03-18T06:52:47.872Z,9.45
2019-03-18T06:55:17.151Z,9.25
2019-03-18T06:57:46.434Z,8.13
2019-03-18T07:00:18.433Z,14.83
2019-03-18T07:02:47.813Z,10.35
2019-03-18T07:05:17.428Z,12.98
2019-03-18T07:07:46.768Z,10.38
2019-03-18T07:10:18.516Z,10.85
2019-03-18T07:12:48.101Z,14.05
2019-03-18T07:15:17.425Z,12.10
2019-03-18T07:17:46.725Z,12.82
2019-03-18T07:20:16.023Z,12.65
2019-03-18T07:22:45.349Z,12.35
2019-03-18T07:25:14.627Z,9.33
2019-03-18T07:27:43.924Z,13.18
2019-03-18T07:30:17.120Z,12.00
2019-03-18T07:32:46.703Z,10.82
2019-03-18T07:35:15.994Z,16.50
2019-03-18T07:37:45.599Z,12.13
2019-03-18T07:40:16.895Z,9.88
2019-03-18T07:42:46.256Z,12.60
2019-03-18T07:45:16.430Z,9.55
2019-03-18T07:47:46.013Z,11.83
2019-03-18T07:50:16.074Z,11.00
2019-03-18T07:52:45.410Z,13.72
2019-03-18T07:55:14.693Z,12.28
2019-03-18T07:57:44.305Z,12.05
2019-03-18T08:00:16.052Z,10.28
2019-03-18T08:02:45.337Z,10.70
2019-03-18T08:05:14.964Z,10.58
2019-03-18T08:07:44.325Z,10.28
2019-03-18T08:10:15.213Z,10.72
2019-03-18T08:12:44.569Z,9.90
2019-03-18T08:15:14.404Z,12.65
2019-03-18T08:17:43.618Z,10.68
2019-03-18T08:20:13.628Z,14.58
2019-03-18T08:22:42.994Z,13.50
2019-03-18T08:25:12.638Z,11.08
2019-03-18T08:27:41.936Z,15.53
2019-03-18T08:30:18.954Z,13.27
2019-03-18T08:32:48.536Z,14.87
2019-03-18T08:35:17.829Z,6.47
2019-03-18T08:37:47.184Z,9.38
2019-03-18T08:40:16.463Z,9.28
2019-03-18T08:42:45.748Z,9.20
2019-03-18T08:45:15.158Z,10.78
2019-03-18T08:47:44.520Z,14.38
2019-03-18T08:50:13.954Z,13.83
2019-03-18T08:52:43.542Z,10.75
2019-03-18T08:55:13.275Z,13.32
2019-03-18T08:57:42.559Z,11.08
2019-03-18T09:00:16.613Z,13.32
2019-03-18T09:02:45.897Z,12.90
2019-03-18T09:05:15.185Z,6.83
2019-03-18T09:07:44.512Z,9.88
2019-03-18T09:10:15.914Z,10.15
2019-03-18T09:12:45.573Z,10.35
2019-03-18T09:15:15.035Z,8.13
2019-03-18T09:17:44.412Z,13.40
2019-03-18T09:20:18.640Z,8.73
2019-03-18T09:22:47.971Z,9.08
2019-03-18T09:25:17.258Z,9.38
2019-03-18T09:27:46.541Z,9.70
2019-03-18T09:30:20.545Z,10.18
2019-03-18T09:32:50.262Z,9.65
2019-03-18T09:35:19.555Z,10.72
2019-03-18T09:37:50.802Z,12.18
2019-03-18T09:40:20.066Z,8.38
2019-03-18T09:42:49.365Z,10.15
2019-03-18T09:45:19.437Z,9.90
2019-03-18T09:47:48.732Z,17.00
2019-03-18T09:50:18.163Z,12.45
2019-03-18T09:52:47.512Z,11.18
2019-03-18T09:55:16.800Z,10.35
2019-03-18T09:57:46.107Z,14.90
2019-03-18T10:00:18.612Z,8.83
2019-03-18T10:02:47.904Z,10.65
2019-03-18T10:05:17.198Z,15.48
2019-03-18T10:07:46.819Z,14.33
2019-03-18T10:10:16.429Z,13.43
2019-03-18T10:12:45.728Z,11.70
2019-03-18T10:15:18.460Z,14.93
2019-03-18T10:17:47.758Z,17.80
2019-03-18T10:20:17.112Z,12.80
2019-03-18T10:22:46.526Z,11.65
2019-03-18T10:25:15.825Z,12.75
2019-03-18T10:27:45.119Z,12.85
2019-03-18T10:30:16.389Z,19.42
2019-03-18T10:32:45.676Z,14.07
2019-03-18T10:35:14.990Z,18.48
2019-03-18T10:37:44.567Z,11.28
2019-03-18T10:40:14.804Z,12.35
2019-03-18T10:42:44.104Z,11.75
2019-03-18T10:45:15.342Z,14.47
2019-03-18T10:47:44.636Z,15.85
2019-03-18T10:50:16.551Z,11.25
2019-03-18T10:52:45.908Z,10.40
2019-03-18T10:55:15.259Z,9.93
2019-03-18T10:57:44.557Z,13.05
2019-03-18T11:00:19.755Z,13.15
2019-03-18T11:02:49.044Z,7.65
2019-03-18T11:05:18.394Z,9.68
2019-03-18T11:07:47.727Z,11.48
2019-03-18T11:10:17.557Z,11.35
2019-03-18T11:12:47.156Z,11.60
2019-03-18T11:15:21.613Z,9.68
2019-03-18T11:17:50.905Z,13.58
2019-03-18T11:20:20.612Z,11.35
2019-03-18T11:22:49.921Z,9.58
2019-03-18T11:25:19.278Z,12.68
2019-03-18T11:27:48.590Z,10.10
2019-03-18T11:30:21.145Z,15.43
2019-03-18T11:32:50.433Z,11.00
2019-03-18T11:35:19.722Z,13.65
2019-03-18T11:37:49.058Z,11.45
2019-03-18T11:40:22.495Z,9.10
2019-03-18T11:42:51.777Z,8.60
2019-03-18T11:45:21.259Z,11.10
2019-03-18T11:47:50.551Z,10.43
2019-03-18T11:50:21.041Z,6.85
2019-03-18T11:52:50.458Z,7.87
2019-03-18T11:55:27.092Z,9.58
2019-03-18T11:57:56.487Z,15.13
2019-03-18T12:00:27.198Z,11.80
2019-03-18T12:02:56.488Z,15.32
2019-03-18T12:05:27.535Z,11.53
2019-03-18T12:07:56.821Z,16.87
2019-03-18T12:10:26.294Z,28.25
2019-03-18T12:12:55.657Z,14.80
2019-03-18T12:15:27.788Z,10.28
2019-03-18T12:17:57.202Z,8.20
2019-03-18T12:20:26.933Z,7.40
2019-03-18T12:22:56.276Z,6.75
2019-03-18T12:25:25.635Z,6.08
2019-03-18T12:27:55.282Z,8.53
2019-03-18T12:30:26.975Z,7.47
2019-03-18T12:32:56.251Z,7.80
2019-03-18T12:35:26.219Z,8.55
2019-03-18T12:37:55.492Z,9.23
2019-03-18T12:40:24.773Z,8.90
2019-03-18T12:42:54.172Z,6.72
2019-03-18T12:45:23.605Z,12.50
2019-03-18T12:47:53.222Z,10.32
2019-03-18T12:50:42.968Z,6.80
2019-03-18T12:52:55.254Z,8.13
2019-03-18T12:55:24.607Z,7.22
2019-03-18T12:57:53.938Z,10.53
2019-03-18T13:00:32.794Z,6.78
2019-03-18T13:03:02.258Z,7.67
2019-03-18T13:05:31.617Z,9.33
2019-03-18T13:08:00.987Z,10.15
2019-03-18T13:10:30.410Z,12.07
2019-03-18T13:12:59.751Z,6.92
2019-03-18T13:15:29.044Z,11.57
2019-03-18T13:17:58.382Z,14.78
2019-03-18T13:20:27.667Z,8.08
2019-03-18T13:22:56.969Z,11.93
2019-03-18T13:25:26.309Z,5.12
2019-03-18T13:27:55.596Z,7.17
2019-03-18T13:30:25.395Z,6.15
2019-03-18T13:32:55.060Z,8.63
2019-03-18T13:35:24.356Z,5.42
2019-03-18T13:37:53.655Z,6.83
2019-03-18T13:40:22.997Z,9.00
2019-03-18T13:42:52.577Z,8.05
2019-03-18T13:45:25.256Z,7.42
2019-03-18T13:47:54.623Z,7.90
2019-03-18T13:50:23.919Z,7.25
2019-03-18T13:52:53.207Z,5.22
2019-03-18T13:55:22.564Z,6.67
2019-03-18T13:57:52.170Z,6.97
2019-03-18T14:00:22.771Z,6.33
2019-03-18T14:02:52.230Z,9.45
2019-03-18T14:05:21.604Z,7.47
2019-03-18T14:08:00.257Z,8.18
2019-03-18T14:10:23.676Z,7.17
2019-03-18T14:12:52.963Z,9.50
2019-03-18T14:15:25.598Z,7.60
2019-03-18T14:17:55.107Z,10.43
2019-03-18T14:20:29.673Z,10.08
2019-03-18T14:22:58.962Z,9.95
2019-03-18T14:25:28.296Z,10.30
2019-03-18T14:27:57.579Z,10.80
2019-03-18T14:30:26.865Z,8.65
2019-03-18T14:32:56.217Z,9.05
2019-03-18T14:35:25.503Z,7.40
2019-03-18T14:37:54.969Z,13.78
2019-03-18T14:40:27.535Z,8.25
2019-03-18T14:42:56.975Z,10.80
2019-03-18T14:45:26.220Z,10.70
2019-03-18T14:47:55.544Z,8.95
2019-03-18T14:50:24.970Z,7.60
2019-03-18T14:52:54.253Z,7.95
2019-03-18T14:55:23.589Z,9.83
2019-03-18T14:57:53.184Z,12.10
2019-03-18T15:00:30.479Z,8.28
2019-03-18T15:02:59.785Z,8.68
2019-03-18T15:05:29.110Z,8.95
2019-03-18T15:07:58.464Z,8.05
2019-03-18T15:10:29.745Z,6.55
2019-03-18T15:12:59.053Z,9.68
2019-03-18T15:15:28.380Z,9.58
2019-03-18T15:17:57.677Z,8.28
2019-03-18T15:20:29.078Z,8.43
2019-03-18T15:22:58.407Z,8.30
2019-03-18T15:25:33.919Z,8.68
2019-03-18T15:28:03.209Z,6.70
2019-03-18T15:30:32.625Z,12.00
2019-03-18T15:33:01.938Z,11.00
2019-03-18T15:35:31.226Z,8.58
2019-03-18T15:38:00.558Z,11.25
2019-03-18T15:40:30.715Z,6.35
2019-03-18T15:43:00.005Z,6.42
2019-03-18T15:45:29.344Z,9.05
2019-03-18T15:47:58.636Z,5.55
2019-03-18T15:50:28.497Z,7.03
2019-03-18T15:52:57.834Z,7.03
2019-03-18T15:55:27.120Z,9.80
2019-03-18T15:57:56.411Z,12.33
2019-03-18T16:00:33.301Z,8.13
2019-03-18T16:03:02.596Z,5.25
2019-03-18T16:05:31.881Z,7.00
2019-03-18T16:08:01.212Z,8.43
2019-03-18T16:10:30.500Z,8.53
2019-03-18T16:13:00.031Z,8.60
2019-03-18T16:15:29.361Z,9.25
2019-03-18T16:17:58.644Z,11.00
2019-03-18T16:20:28.397Z,9.05
2019-03-18T16:22:58.067Z,7.25
2019-03-18T16:25:27.354Z,5.85
2019-03-18T16:27:56.653Z,6.90
2019-03-18T16:30:26.059Z,8.28
2019-03-18T16:32:55.357Z,6.85
2019-03-18T16:35:24.646Z,10.68
2019-03-18T16:37:53.986Z,7.55
2019-03-18T16:40:24.383Z,10.03
2019-03-18T16:42:56.081Z,13.55
2019-03-18T16:45:25.470Z,12.10
2019-03-18T16:47:54.714Z,9.85
2019-03-18T16:50:31.997Z,12.98
2019-03-18T16:53:01.278Z,10.72
2019-03-18T16:55:30.573Z,13.45
2019-03-18T16:58:00.058Z,9.30
2019-03-18T17:00:29.422Z,11.35
2019-03-18T17:02:58.721Z,12.70
2019-03-18T17:05:28.069Z,10.78
2019-03-18T17:07:57.347Z,11.28
2019-03-18T17:10:26.643Z,12.33
2019-03-18T17:12:55.983Z,10.08
2019-03-18T17:15:25.280Z,13.90
2019-03-18T17:17:54.560Z,7.90
2019-03-18T17:20:23.902Z,9.13
2019-03-18T17:22:53.204Z,18.70
2019-03-18T17:25:31.283Z,13.75
2019-03-18T17:28:00.573Z,17.67
2019-03-18T17:30:29.888Z,11.53
2019-03-18T17:32:59.230Z,9.40
2019-03-18T17:35:28.525Z,11.28
2019-03-18T17:37:57.905Z,11.35
2019-03-18T17:40:27.263Z,10.53
2019-03-18T17:42:56.550Z,10.60
2019-03-18T17:45:26.149Z,11.43
2019-03-18T17:47:55.493Z,16.40
2019-03-18T17:50:27.702Z,10.53
2019-03-18T17:53:03.218Z,11.90
2019-03-18T17:55:28.104Z,9.60
2019-03-18T17:57:57.392Z,8.45
2019-03-18T18:00:46.414Z,9.63
2019-03-18T18:03:15.725Z,10.35
2019-03-18T18:05:45.014Z,8.63
2019-03-18T18:08:14.353Z,11.63
2019-03-18T18:10:43.938Z,13.32
2019-03-18T18:13:13.215Z,8.13
2019-03-18T18:15:42.561Z,11.68
2019-03-18T18:18:11.853Z,8.95
2019-03-18T18:20:41.440Z,10.40
2019-03-18T18:23:14.692Z,11.70
2019-03-18T18:25:41.817Z,11.08
2019-03-18T18:28:11.113Z,13.60
2019-03-18T18:30:40.443Z,14.45
2019-03-18T18:33:09.731Z,8.65
2019-03-18T18:35:39.019Z,10.48
2019-03-18T18:38:08.358Z,13.65
2019-03-18T18:40:37.654Z,12.82
2019-03-18T18:43:06.940Z,10.98
2019-03-18T18:45:36.274Z,15.70
2019-03-18T18:48:05.712Z,9.08
2019-03-18T18:50:35.293Z,10.70
2019-03-18T18:53:04.721Z,7.17
2019-03-18T18:55:34.006Z,7.92
2019-03-18T18:58:03.299Z,9.68
2019-03-18T19:00:32.620Z,8.28
2019-03-18T19:03:01.912Z,11.38
2019-03-18T19:05:31.204Z,13.80
2019-03-18T19:08:00.548Z,12.75
2019-03-18T19:10:32.818Z,10.70
2019-03-18T19:13:02.160Z,10.15
2019-03-18T19:15:43.227Z,9.28
2019-03-18T19:18:12.518Z,10.30
2019-03-18T19:20:41.803Z,8.70
2019-03-18T19:23:11.132Z,11.18
2019-03-18T19:25:40.748Z,12.88
2019-03-18T19:28:10.036Z,9.08
2019-03-18T19:30:39.397Z,11.83
2019-03-18T19:33:08.932Z,7.60
2019-03-18T19:35:38.228Z,10.13
2019-03-18T19:38:07.569Z,11.05
2019-03-18T19:40:36.855Z,10.78
2019-03-18T19:43:06.147Z,10.00
2019-03-18T19:45:35.494Z,6.30
2019-03-18T19:48:04.795Z,8.00
2019-03-18T19:50:34.358Z,14.13
2019-03-18T19:53:03.683Z,9.95
2019-03-18T19:55:32.971Z,16.95
2019-03-18T19:58:02.261Z,12.28
2019-03-18T20:00:31.963Z,11.15
2019-03-18T20:03:01.253Z,10.08
2019-03-18T20:05:31.111Z,10.85
2019-03-18T20:08:00.463Z,14.70
2019-03-18T20:10:29.753Z,11.57
2019-03-18T20:12:59.042Z,9.75
2019-03-18T20:15:28.372Z,11.15
2019-03-18T20:17:57.666Z,11.10
2019-03-18T20:20:26.950Z,11.00
2019-03-18T20:22:56.356Z,9.40
2019-03-18T20:25:25.855Z,19.35
2019-03-18T20:27:55.138Z,10.23
2019-03-18T20:30:24.557Z,11.88
2019-03-18T20:32:53.851Z,15.08
2019-03-18T20:35:26.582Z,11.97
2019-03-18T20:37:55.919Z,15.35
2019-03-18T20:40:25.199Z,13.70
2019-03-18T20:42:54.495Z,11.80
2019-03-18T20:45:26.253Z,11.25
2019-03-18T20:47:55.620Z,15.30
2019-03-18T20:50:25.557Z,12.40
2019-03-18T20:52:54.887Z,14.50
2019-03-18T20:55:24.175Z,10.32
2019-03-18T20:57:53.465Z,13.65
2019-03-18T21:00:24.507Z,13.40
2019-03-18T21:02:53.871Z,16.15
2019-03-18T21:05:25.118Z,12.63
2019-03-18T21:07:54.228Z,12.20
2019-03-18T21:10:23.512Z,9.65
2019-03-18T21:12:52.807Z,15.55
2019-03-18T21:15:22.140Z,12.93
2019-03-18T21:17:51.512Z,18.07
2019-03-18T21:20:29.008Z,17.20
2019-03-18T21:22:58.555Z,15.35
2019-03-18T21:25:27.869Z,14.45
2019-03-18T21:27:57.189Z,14.40
2019-03-18T21:30:26.478Z,14.55
2019-03-18T21:32:55.851Z,15.45
2019-03-18T21:35:25.186Z,14.63
2019-03-18T21:37:54.509Z,10.53
2019-03-18T21:40:23.762Z,13.20
2019-03-18T21:42:53.107Z,13.85
2019-03-18T21:45:24.572Z,12.75
2019-03-18T21:47:54.435Z,10.32
2019-03-18T21:50:23.774Z,16.05
2019-03-18T21:52:53.234Z,11.73
2019-03-18T21:55:22.522Z,11.38
2019-03-18T21:57:51.885Z,9.78
2019-03-18T22:00:24.729Z,11.63
2019-03-18T22:05:57.558Z,13.93
2019-03-18T22:10:56.060Z,13.32
2019-03-18T22:16:27.535Z,9.15
2019-03-18T22:18:56.826Z,13.22
2019-03-18T22:21:26.115Z,12.10
2019-03-18T22:23:55.451Z,12.40
2019-03-18T22:26:24.741Z,12.40
2019-03-18T22:28:54.041Z,14.38
2019-03-18T22:31:23.376Z,15.90
2019-03-18T22:33:52.664Z,17.80
2019-03-18T22:36:21.955Z,14.70
2019-03-18T22:38:51.286Z,13.15
2019-03-18T22:41:20.582Z,11.88
2019-03-18T22:43:49.872Z,16.10
2019-03-18T22:46:19.221Z,12.05
2019-03-18T22:48:48.853Z,11.40
2019-03-18T22:51:18.371Z,13.32
2019-03-18T22:53:47.706Z,16.97
2019-03-18T22:56:16.999Z,11.97
2019-03-18T22:58:46.364Z,11.18
2019-03-18T23:01:17.040Z,13.35
2019-03-18T23:03:46.396Z,10.88
2019-03-18T23:06:18.612Z,14.25
2019-03-18T23:08:49.002Z,15.32
2019-03-18T23:11:18.415Z,13.85
2019-03-18T23:13:47.706Z,12.68
2019-03-18T23:16:17.048Z,17.05
2019-03-18T23:18:46.339Z,15.05
2019-03-18T23:21:15.629Z,17.05
2019-03-18T23:23:44.973Z,13.50
2019-03-18T23:26:14.258Z,10.85
2019-03-18T23:28:43.852Z,15.43
2019-03-18T23:31:13.197Z,13.58
2019-03-18T23:33:42.486Z,10.98
2019-03-18T23:36:11.773Z,9.78
2019-03-18T23:38:41.115Z,14.98
2019-03-18T23:41:10.408Z,14.13
2019-03-18T23:43:39.696Z,11.70
2019-03-18T23:46:09.052Z,14.60
2019-03-18T23:48:41.019Z,14.53
2019-03-18T23:51:10.311Z,14.13
2019-03-18T23:53:39.648Z,15.65
2019-03-18T23:56:08.943Z,15.10
2019-03-18T23:58:38.225Z,9.33
